createdAt,value
2023-04-08T00:01:29.915Z,69.74
2023-04-08T00:03:57.422Z,69.80
2023-04-08T00:06:24.945Z,69.37
2023-04-08T00:08:52.329Z,69.14
2023-04-08T00:11:20.196Z,69.63
2023-04-08T00:13:47.405Z,70.42
2023-04-08T00:16:14.694Z,71.06
2023-04-08T00:18:42.821Z,70.96
2023-04-08T00:21:10.197Z,70.55
2023-04-08T00:23:37.446Z,70.79
2023-04-08T00:26:04.831Z,70.68
2023-04-08T00:28:32.271Z,70.64
2023-04-08T00:30:59.593Z,69.77
2023-04-08T00:33:26.904Z,69.78
2023-04-08T00:35:54.352Z,70.18
2023-04-08T00:38:21.640Z,71.18
2023-04-08T00:40:48.957Z,70.68
2023-04-08T00:43:16.823Z,70.58
2023-04-08T00:45:44.187Z,70.38
2023-04-08T00:48:11.995Z,70.73
2023-04-08T00:50:39.315Z,71.01
2023-04-08T00:53:06.563Z,70.85
2023-04-08T00:55:34.068Z,70.81
2023-04-08T00:58:01.344Z,71.27
2023-04-08T01:00:29.844Z,71.15
2023-04-08T01:03:06.029Z,70.94
2023-04-08T01:05:56.450Z,71.37
2023-04-08T01:08:23.863Z,71.70
2023-04-08T01:10:52.321Z,71.36
2023-04-08T01:13:19.635Z,71.39
2023-04-08T01:15:48.968Z,71.33
2023-04-08T01:18:16.519Z,70.97
2023-04-08T01:20:43.737Z,71.02
2023-04-08T01:23:48.394Z,70.75
2023-04-08T01:26:22.492Z,70.78
2023-04-08T01:28:54.341Z,71.03
2023-04-08T01:31:22.493Z,70.84
2023-04-08T01:33:50.552Z,70.99
2023-04-08T01:36:17.916Z,70.80
2023-04-08T01:38:45.395Z,70.64
2023-04-08T01:41:12.672Z,70.52
2023-04-08T01:43:40.439Z,70.86
2023-04-08T01:46:07.830Z,70.79
2023-04-08T01:48:35.854Z,70.76
2023-04-08T01:51:05.580Z,70.65
2023-04-08T01:53:33.242Z,70.45
2023-04-08T01:56:07.978Z,70.18
2023-04-08T01:58:41.456Z,70.14
2023-04-08T02:01:13.024Z,69.52
2023-04-08T02:03:42.829Z,69.66
2023-04-08T02:06:10.281Z,70.07
2023-04-08T02:08:37.579Z,70.14
2023-04-08T02:11:04.866Z,70.19
2023-04-08T02:13:32.215Z,69.68
2023-04-08T02:16:26.961Z,69.45
2023-04-08T02:18:57.276Z,69.40
2023-04-08T02:21:28.335Z,69.46
2023-04-08T02:23:55.653Z,69.16
2023-04-08T02:26:22.899Z,68.94
2023-04-08T02:28:50.513Z,68.90
2023-04-08T02:31:18.151Z,68.35
2023-04-08T02:33:46.141Z,68.49
2023-04-08T02:36:13.394Z,68.47
2023-04-08T02:38:41.659Z,68.71
2023-04-08T02:41:09.320Z,68.20
2023-04-08T02:43:36.882Z,67.99
2023-04-08T02:46:07.464Z,68.11
2023-04-08T02:48:36.895Z,67.64
2023-04-08T02:51:04.331Z,67.50
2023-04-08T02:53:31.670Z,67.59
2023-04-08T02:55:58.910Z,67.57
2023-04-08T02:58:26.413Z,66.69
2023-04-08T03:00:53.787Z,66.71
2023-04-08T03:03:27.807Z,67.11
2023-04-08T03:05:56.221Z,66.74
2023-04-08T03:08:23.513Z,67.11
2023-04-08T03:10:51.049Z,67.34
2023-04-08T03:13:18.298Z,67.03
2023-04-08T03:15:45.531Z,67.01
2023-04-08T03:18:12.811Z,67.55
2023-04-08T03:20:40.129Z,67.73
2023-04-08T03:23:07.492Z,67.25
2023-04-08T03:25:34.770Z,66.57
2023-04-08T03:28:01.997Z,67.05
2023-04-08T03:30:29.397Z,66.54
2023-04-08T03:32:56.693Z,66.61
2023-04-08T03:35:24.547Z,66.89
2023-04-08T03:37:51.727Z,67.60
2023-04-08T03:40:19.244Z,68.13
2023-04-08T03:42:46.592Z,68.56
2023-04-08T03:45:13.962Z,69.57
2023-04-08T03:47:41.440Z,70.74
2023-04-08T03:50:09.258Z,69.97
2023-04-08T03:52:36.477Z,68.60
2023-04-08T03:55:03.931Z,69.53
2023-04-08T03:57:31.084Z,69.12
2023-04-08T03:59:58.442Z,72.44
2023-04-08T04:02:25.981Z,73.46
2023-04-08T04:04:53.433Z,74.29
2023-04-08T04:07:20.711Z,74.09
2023-04-08T04:09:48.116Z,74.75
2023-04-08T04:12:15.553Z,76.20
2023-04-08T04:14:42.874Z,76.96
2023-04-08T04:17:10.113Z,77.55
2023-04-08T04:19:37.579Z,77.74
2023-04-08T04:22:04.784Z,77.22
2023-04-08T04:24:32.056Z,77.20
2023-04-08T04:26:59.303Z,75.88
2023-04-08T04:29:26.633Z,76.66
2023-04-08T04:31:53.884Z,77.01
2023-04-08T04:34:21.188Z,77.96
2023-04-08T04:36:48.392Z,78.41
2023-04-08T04:39:15.776Z,78.04
2023-04-08T04:41:44.383Z,78.12
2023-04-08T04:44:12.144Z,78.75
2023-04-08T04:46:39.663Z,77.92
2023-04-08T04:49:06.983Z,79.68
2023-04-08T04:51:34.277Z,79.69
2023-04-08T04:54:01.688Z,78.77
2023-04-08T04:56:28.949Z,78.74
2023-04-08T04:58:56.286Z,78.73
2023-04-08T05:01:23.588Z,78.98
2023-04-08T05:03:51.035Z,79.47
2023-04-08T05:06:18.259Z,79.27
2023-04-08T05:08:45.593Z,79.35
2023-04-08T05:11:12.833Z,78.73
2023-04-08T05:13:40.083Z,79.43
2023-04-08T05:16:07.824Z,79.82
2023-04-08T05:18:35.233Z,79.14
2023-04-08T05:21:03.008Z,79.67
2023-04-08T05:23:30.398Z,79.66
2023-04-08T05:25:57.627Z,79.25
2023-04-08T05:28:24.970Z,79.31
2023-04-08T05:30:52.476Z,80.18
2023-04-08T05:33:19.788Z,80.79
2023-04-08T05:35:47.064Z,80.60
2023-04-08T05:38:14.364Z,80.33
2023-04-08T05:40:41.673Z,79.87
2023-04-08T05:43:09.012Z,79.75
2023-04-08T05:45:36.311Z,79.42
2023-04-08T05:48:03.835Z,79.36
2023-04-08T05:50:31.161Z,80.05
2023-04-08T05:52:58.433Z,80.92
2023-04-08T05:55:25.932Z,81.21
2023-04-08T05:57:53.288Z,80.46
2023-04-08T06:00:21.481Z,79.73
2023-04-08T06:02:48.851Z,80.42
2023-04-08T06:05:16.477Z,81.34
2023-04-08T06:07:43.768Z,81.13
2023-04-08T06:10:11.341Z,81.73
2023-04-08T06:12:39.558Z,80.96
2023-04-08T06:15:07.954Z,81.05
2023-04-08T06:17:38.764Z,81.44
2023-04-08T06:20:06.830Z,82.28
2023-04-08T06:22:34.082Z,82.35
2023-04-08T06:25:01.564Z,82.24
2023-04-08T06:27:28.773Z,81.69
2023-04-08T06:29:56.182Z,81.83
2023-04-08T06:32:23.503Z,82.15
2023-04-08T06:34:51.064Z,82.11
2023-04-08T06:37:18.342Z,81.91
2023-04-08T06:39:45.635Z,81.94
2023-04-08T06:42:12.936Z,81.34
2023-04-08T06:44:54.405Z,82.32
2023-04-08T06:47:21.695Z,81.81
2023-04-08T06:49:49.012Z,82.16
2023-04-08T06:52:17.212Z,81.98
2023-04-08T06:54:44.472Z,82.04
2023-04-08T06:57:11.819Z,81.59
2023-04-08T06:59:39.090Z,81.93
2023-04-08T07:02:06.788Z,80.05
2023-04-08T07:04:34.073Z,80.03
2023-04-08T07:07:02.704Z,80.27
2023-04-08T07:09:29.999Z,81.76
2023-04-08T07:11:57.750Z,82.08
2023-04-08T07:14:24.995Z,81.99
2023-04-08T07:16:52.355Z,82.42
2023-04-08T07:19:19.729Z,81.21
2023-04-08T07:21:47.050Z,80.41
2023-04-08T07:24:14.285Z,81.14
2023-04-08T07:26:41.666Z,81.38
2023-04-08T07:29:08.898Z,81.87
2023-04-08T07:31:36.249Z,80.86
2023-04-08T07:34:03.491Z,79.94
2023-04-08T07:36:30.794Z,80.28
2023-04-08T07:38:58.044Z,80.57
2023-04-08T07:41:25.507Z,80.20
2023-04-08T07:43:52.781Z,80.72
2023-04-08T07:46:21.145Z,80.89
2023-04-08T07:48:48.584Z,80.12
2023-04-08T07:51:16.182Z,80.90
2023-04-08T07:53:47.398Z,80.78
2023-04-08T07:56:15.651Z,80.94
2023-04-08T07:58:43.318Z,81.61
2023-04-08T08:01:31.426Z,81.84
2023-04-08T08:03:59.121Z,81.28
2023-04-08T08:06:27.754Z,80.78
2023-04-08T08:08:55.078Z,80.24
2023-04-08T08:11:22.755Z,81.10
2023-04-08T08:13:50.360Z,81.20
2023-04-08T08:16:17.847Z,81.82
2023-04-08T08:18:45.385Z,80.86
2023-04-08T08:21:12.580Z,81.25
2023-04-08T08:23:39.861Z,80.92
2023-04-08T08:26:11.353Z,81.24
2023-04-08T08:28:39.497Z,81.15
2023-04-08T08:31:06.958Z,80.67
2023-04-08T08:33:34.457Z,78.98
2023-04-08T08:36:01.928Z,79.34
2023-04-08T08:38:29.228Z,79.61
2023-04-08T08:40:57.208Z,80.29
2023-04-08T08:43:24.950Z,80.23
2023-04-08T08:45:52.200Z,80.47
2023-04-08T08:48:19.531Z,79.27
2023-04-08T08:50:46.809Z,80.77
2023-04-08T08:53:14.110Z,80.89
2023-04-08T08:56:00.259Z,79.45
2023-04-08T08:58:28.688Z,80.14
2023-04-08T09:00:56.050Z,80.21
2023-04-08T09:03:24.131Z,78.84
2023-04-08T09:05:52.267Z,80.10
2023-04-08T09:08:26.348Z,78.14
2023-04-08T09:10:54.651Z,79.21
2023-04-08T09:13:25.017Z,79.66
2023-04-08T09:16:03.618Z,81.21
2023-04-08T09:18:31.839Z,81.15
2023-04-08T09:21:03.071Z,80.52
2023-04-08T09:23:45.586Z,80.21
2023-04-08T09:26:19.842Z,80.39
2023-04-08T09:29:14.291Z,79.65
2023-04-08T09:31:54.155Z,80.31
2023-04-08T09:34:23.267Z,80.37
2023-04-08T09:36:51.028Z,80.75
2023-04-08T09:39:18.361Z,80.92
2023-04-08T09:41:46.105Z,80.61
2023-04-08T09:44:13.390Z,81.75
2023-04-08T09:47:11.303Z,80.75
2023-04-08T09:49:44.846Z,81.09
2023-04-08T09:52:15.795Z,79.73
2023-04-08T09:55:02.735Z,80.13
2023-04-08T09:57:45.914Z,80.56
2023-04-08T10:00:14.334Z,80.97
2023-04-08T10:03:08.474Z,80.98
2023-04-08T10:05:38.472Z,81.38
2023-04-08T10:08:06.678Z,81.75
2023-04-08T10:10:39.455Z,81.49
2023-04-08T10:13:09.889Z,81.61
2023-04-08T10:15:38.616Z,82.29
2023-04-08T10:18:06.346Z,82.39
2023-04-08T10:20:36.873Z,81.86
2023-04-08T10:23:11.606Z,81.41
2023-04-08T10:25:45.666Z,82.10
2023-04-08T10:28:18.002Z,81.32
2023-04-08T10:30:46.287Z,80.69
2023-04-08T10:33:30.334Z,81.10
2023-04-08T10:36:07.263Z,80.89
2023-04-08T10:38:34.637Z,80.33
2023-04-08T10:41:02.562Z,80.69
2023-04-08T10:43:36.749Z,80.46
2023-04-08T10:46:04.993Z,81.00
2023-04-08T10:48:32.439Z,80.88
2023-04-08T10:51:06.385Z,82.25
2023-04-08T10:53:40.049Z,82.43
2023-04-08T10:56:07.949Z,82.13
2023-04-08T10:58:36.616Z,80.60
2023-04-08T11:01:05.960Z,80.82
2023-04-08T11:03:35.078Z,81.24
2023-04-08T11:06:03.068Z,80.91
2023-04-08T11:08:33.787Z,81.15
2023-04-08T11:11:04.396Z,80.37
2023-04-08T11:13:31.836Z,81.23
2023-04-08T11:15:59.602Z,80.92
2023-04-08T11:18:27.421Z,80.83
2023-04-08T11:20:54.759Z,81.68
2023-04-08T11:23:23.039Z,81.35
2023-04-08T11:25:50.860Z,81.87
2023-04-08T11:28:18.258Z,81.59
2023-04-08T11:30:45.506Z,80.68
2023-04-08T11:33:13.285Z,81.23
2023-04-08T11:35:41.800Z,81.23
2023-04-08T11:38:09.887Z,81.42
2023-04-08T11:40:37.175Z,81.10
2023-04-08T11:43:11.150Z,80.33
2023-04-08T11:45:39.579Z,80.21
2023-04-08T11:48:14.326Z,81.05
2023-04-08T11:50:42.099Z,79.47
2023-04-08T11:53:19.822Z,80.33
2023-04-08T11:55:47.426Z,80.41
2023-04-08T11:58:14.712Z,80.09
2023-04-08T12:00:42.788Z,79.55
2023-04-08T12:03:10.517Z,79.44
2023-04-08T12:05:37.883Z,79.07
2023-04-08T12:08:05.181Z,78.04
2023-04-08T12:10:32.832Z,79.16
2023-04-08T12:13:00.037Z,78.68
2023-04-08T12:15:27.421Z,78.55
2023-04-08T12:17:54.663Z,78.27
2023-04-08T12:20:21.970Z,77.37
2023-04-08T12:22:49.247Z,76.96
2023-04-08T12:25:16.511Z,78.30
2023-04-08T12:27:43.671Z,78.66
2023-04-08T12:30:11.632Z,77.99
2023-04-08T12:32:38.946Z,78.90
2023-04-08T12:35:06.504Z,77.96
2023-04-08T12:37:33.714Z,78.22
2023-04-08T12:40:01.411Z,77.35
2023-04-08T12:42:28.630Z,77.53
2023-04-08T12:44:56.447Z,77.46
2023-04-08T12:47:25.987Z,77.32
2023-04-08T12:49:53.624Z,76.65
2023-04-08T12:52:20.815Z,77.81
2023-04-08T12:54:48.166Z,77.37
2023-04-08T12:57:15.397Z,78.81
2023-04-08T12:59:42.800Z,77.57
2023-04-08T13:02:10.172Z,78.68
2023-04-08T13:04:37.512Z,78.31
2023-04-08T13:07:05.086Z,78.84
2023-04-08T13:09:32.395Z,79.73
2023-04-08T13:11:59.811Z,79.25
2023-04-08T13:14:27.530Z,78.87
2023-04-08T13:16:54.868Z,78.50
2023-04-08T13:19:22.188Z,79.71
2023-04-08T13:21:49.432Z,79.85
2023-04-08T13:24:16.873Z,79.65
2023-04-08T13:26:44.195Z,79.85
2023-04-08T13:29:11.409Z,79.76
2023-04-08T13:31:38.725Z,78.57
2023-04-08T13:34:06.426Z,78.48
2023-04-08T13:36:33.650Z,80.57
2023-04-08T13:39:01.216Z,79.16
2023-04-08T13:41:28.591Z,80.04
2023-04-08T13:43:56.701Z,80.43
2023-04-08T13:46:24.071Z,79.23
2023-04-08T13:48:51.788Z,80.04
2023-04-08T13:51:19.262Z,79.54
2023-04-08T13:53:47.087Z,79.30
2023-04-08T13:56:14.249Z,79.94
2023-04-08T13:58:41.732Z,79.45
2023-04-08T14:01:08.960Z,78.39
2023-04-08T14:03:36.662Z,78.54
2023-04-08T14:06:03.895Z,79.28
2023-04-08T14:08:31.133Z,78.98
2023-04-08T14:10:58.460Z,80.56
2023-04-08T14:13:25.817Z,80.29
2023-04-08T14:15:55.058Z,80.12
2023-04-08T14:18:22.357Z,78.79
2023-04-08T14:20:49.560Z,79.33
2023-04-08T14:23:17.208Z,80.00
2023-04-08T14:25:44.401Z,79.88
2023-04-08T14:28:11.684Z,80.03
2023-04-08T14:30:38.869Z,79.47
2023-04-08T14:33:06.380Z,79.74
2023-04-08T14:35:33.829Z,80.54
2023-04-08T14:38:01.507Z,80.22
2023-04-08T14:40:28.783Z,80.06
2023-04-08T14:42:56.109Z,80.25
2023-04-08T14:45:23.370Z,79.30
2023-04-08T14:47:50.807Z,79.46
2023-04-08T14:50:18.917Z,80.28
2023-04-08T14:52:48.578Z,79.76
2023-04-08T14:55:16.796Z,79.81
2023-04-08T14:57:44.077Z,79.92
2023-04-08T15:00:11.931Z,80.16
2023-04-08T15:02:39.352Z,79.96
2023-04-08T15:05:07.141Z,78.94
2023-04-08T15:07:34.483Z,78.75
2023-04-08T15:10:01.670Z,79.64
2023-04-08T15:12:29.334Z,79.82
2023-04-08T15:14:56.604Z,80.12
2023-04-08T15:17:23.933Z,79.70
2023-04-08T15:19:51.300Z,80.04
2023-04-08T15:22:18.647Z,80.74
2023-04-08T15:24:47.545Z,78.78
2023-04-08T15:27:16.015Z,80.25
2023-04-08T15:29:43.357Z,80.01
2023-04-08T15:32:11.028Z,80.17
2023-04-08T15:34:38.286Z,79.53
2023-04-08T15:37:06.467Z,79.66
2023-04-08T15:39:33.758Z,80.51
2023-04-08T15:42:01.538Z,80.83
2023-04-08T15:44:32.299Z,79.66
2023-04-08T15:46:59.609Z,80.45
2023-04-08T15:49:26.897Z,81.03
2023-04-08T15:51:54.284Z,80.80
2023-04-08T15:54:21.775Z,81.52
2023-04-08T15:56:49.120Z,81.58
2023-04-08T15:59:16.352Z,81.88
2023-04-08T16:01:43.772Z,81.57
2023-04-08T16:04:11.556Z,81.43
2023-04-08T16:06:38.904Z,81.46
2023-04-08T16:09:06.558Z,81.37
2023-04-08T16:11:34.258Z,81.61
2023-04-08T16:14:01.953Z,81.53
2023-04-08T16:16:29.474Z,81.48
2023-04-08T16:18:56.800Z,81.68
2023-04-08T16:21:24.320Z,81.91
2023-04-08T16:23:51.898Z,81.23
2023-04-08T16:26:19.879Z,82.09
2023-04-08T16:28:47.253Z,82.46
2023-04-08T16:31:14.571Z,81.90
2023-04-08T16:33:41.864Z,82.09
2023-04-08T16:36:09.425Z,81.88
2023-04-08T16:38:36.755Z,82.28
2023-04-08T16:41:06.392Z,82.64
2023-04-08T16:43:33.604Z,82.41
2023-04-08T16:46:01.115Z,82.06
2023-04-08T16:48:29.708Z,82.89
2023-04-08T16:50:57.894Z,82.32
2023-04-08T16:53:25.174Z,82.54
2023-04-08T16:55:52.666Z,82.38
2023-04-08T16:58:19.944Z,82.86
2023-04-08T17:00:47.304Z,82.34
2023-04-08T17:03:14.706Z,83.27
2023-04-08T17:05:42.338Z,83.50
2023-04-08T17:08:09.629Z,82.95
2023-04-08T17:10:37.189Z,83.29
2023-04-08T17:13:05.455Z,83.41
2023-04-08T17:15:34.794Z,83.72
2023-04-08T17:18:02.097Z,83.51
2023-04-08T17:20:29.520Z,83.11
2023-04-08T17:22:57.082Z,83.42
2023-04-08T17:25:24.654Z,83.20
2023-04-08T17:27:51.915Z,83.72
2023-04-08T17:30:19.350Z,83.82
2023-04-08T17:32:46.606Z,83.54
2023-04-08T17:35:14.315Z,83.55
2023-04-08T17:37:41.622Z,83.28
2023-04-08T17:40:09.488Z,83.97
2023-04-08T17:42:36.731Z,84.04
2023-04-08T17:45:04.824Z,83.75
2023-04-08T17:47:32.113Z,83.65
2023-04-08T17:49:59.470Z,83.12
2023-04-08T17:52:26.742Z,83.16
2023-04-08T17:54:54.028Z,83.11
2023-04-08T17:57:21.532Z,83.50
2023-04-08T17:59:49.004Z,83.40
2023-04-08T18:02:16.684Z,83.42
2023-04-08T18:04:44.478Z,83.24
2023-04-08T18:07:11.723Z,83.38
2023-04-08T18:09:39.076Z,83.20
2023-04-08T18:12:06.959Z,83.36
2023-04-08T18:14:35.889Z,83.63
2023-04-08T18:17:03.808Z,83.47
2023-04-08T18:19:31.599Z,83.32
2023-04-08T18:21:58.836Z,83.19
2023-04-08T18:24:26.074Z,83.00
2023-04-08T18:27:03.580Z,83.65
2023-04-08T18:29:31.630Z,83.61
2023-04-08T18:31:58.859Z,83.81
2023-04-08T18:34:26.811Z,83.08
2023-04-08T18:36:54.081Z,83.46
2023-04-08T18:39:21.467Z,83.02
2023-04-08T18:41:48.703Z,83.07
2023-04-08T18:44:16.655Z,83.44
2023-04-08T18:46:45.708Z,82.76
2023-04-08T18:49:12.960Z,83.19
2023-04-08T18:51:42.155Z,83.60
2023-04-08T18:54:13.574Z,83.77
2023-04-08T18:56:41.185Z,83.39
2023-04-08T18:59:08.783Z,83.27
2023-04-08T19:01:36.706Z,83.39
2023-04-08T19:04:04.271Z,83.08
2023-04-08T19:06:35.477Z,82.81
2023-04-08T19:09:03.071Z,83.63
2023-04-08T19:11:30.597Z,83.41
2023-04-08T19:13:57.851Z,83.86
2023-04-08T19:16:25.567Z,84.20
2023-04-08T19:18:53.667Z,83.72
2023-04-08T19:21:21.896Z,83.31
2023-04-08T19:23:49.683Z,83.02
2023-04-08T19:26:17.425Z,82.81
2023-04-08T19:28:44.813Z,83.44
2023-04-08T19:31:18.804Z,83.70
2023-04-08T19:33:46.193Z,83.89
2023-04-08T19:36:13.480Z,83.47
2023-04-08T19:38:40.989Z,83.56
2023-04-08T19:41:08.211Z,83.78
2023-04-08T19:43:35.646Z,83.81
2023-04-08T19:46:03.739Z,83.71
2023-04-08T19:48:32.688Z,83.74
2023-04-08T19:51:00.130Z,83.43
2023-04-08T19:53:27.444Z,83.67
2023-04-08T19:56:01.691Z,83.54
2023-04-08T19:58:29.163Z,83.01
2023-04-08T20:00:56.627Z,83.04
2023-04-08T20:03:24.183Z,83.28
2023-04-08T20:05:52.571Z,83.31
2023-04-08T20:08:19.938Z,83.41
2023-04-08T20:10:49.160Z,84.05
2023-04-08T20:13:16.586Z,84.00
2023-04-08T20:15:44.385Z,84.13
2023-04-08T20:18:12.339Z,84.11
2023-04-08T20:20:39.691Z,83.95
2023-04-08T20:23:06.951Z,83.63
2023-04-08T20:25:34.216Z,83.55
2023-04-08T20:28:01.632Z,83.98
2023-04-08T20:30:28.903Z,83.71
2023-04-08T20:32:56.279Z,83.35
2023-04-08T20:35:23.499Z,83.66
2023-04-08T20:37:51.187Z,84.04
2023-04-08T20:40:18.564Z,84.05
2023-04-08T20:42:46.275Z,84.07
2023-04-08T20:45:13.489Z,84.10
2023-04-08T20:47:40.876Z,83.77
2023-04-08T20:50:09.115Z,83.69
2023-04-08T20:52:36.380Z,83.50
2023-04-08T20:55:03.765Z,83.82
2023-04-08T20:57:31.329Z,83.65
2023-04-08T20:59:58.687Z,83.64
2023-04-08T21:02:26.140Z,83.48
2023-04-08T21:04:53.524Z,83.81
2023-04-08T21:07:21.025Z,83.94
2023-04-08T21:09:51.032Z,84.35
2023-04-08T21:12:18.310Z,84.50
2023-04-08T21:14:45.849Z,83.85
2023-04-08T21:17:13.257Z,83.33
2023-04-08T21:19:41.873Z,83.04
2023-04-08T21:22:09.123Z,83.57
2023-04-08T21:24:38.077Z,83.72
2023-04-08T21:27:05.446Z,83.86
2023-04-08T21:29:32.647Z,83.49
2023-04-08T21:31:59.953Z,83.41
2023-04-08T21:34:27.242Z,83.13
2023-04-08T21:36:54.615Z,82.82
2023-04-08T21:39:22.376Z,83.70
2023-04-08T21:41:49.707Z,83.87
2023-04-08T21:44:16.932Z,83.89
2023-04-08T21:46:44.316Z,83.78
2023-04-08T21:49:11.781Z,83.88
2023-04-08T21:51:40.875Z,83.73
2023-04-08T21:54:08.159Z,83.37
2023-04-08T21:56:35.512Z,83.56
2023-04-08T21:59:02.723Z,83.50
2023-04-08T22:01:30.495Z,83.16
2023-04-08T22:03:58.067Z,83.91
2023-04-08T22:06:32.098Z,83.99
2023-04-08T22:09:00.333Z,83.16
2023-04-08T22:11:27.666Z,83.10
2023-04-08T22:13:54.948Z,83.25
2023-04-08T22:16:22.203Z,84.09
2023-04-08T22:18:49.572Z,84.08
2023-04-08T22:21:16.892Z,84.32
2023-04-08T22:23:44.181Z,84.10
2023-04-08T22:26:11.429Z,83.42
2023-04-08T22:28:38.998Z,83.72
2023-04-08T22:31:09.999Z,83.67
2023-04-08T22:33:37.754Z,83.21
2023-04-08T22:36:05.353Z,83.21
2023-04-08T22:38:32.689Z,83.21
2023-04-08T22:40:59.962Z,83.37
2023-04-08T22:43:27.213Z,83.28
2023-04-08T22:45:54.447Z,83.67
2023-04-08T22:48:21.886Z,83.91
2023-04-08T22:50:49.190Z,84.26
2023-04-08T22:53:16.418Z,83.69
2023-04-08T22:55:43.659Z,83.93
2023-04-08T22:58:11.105Z,83.79
2023-04-08T23:00:38.343Z,84.08
2023-04-08T23:03:05.809Z,83.97
2023-04-08T23:05:33.221Z,83.92
2023-04-08T23:08:00.606Z,84.19
2023-04-08T23:10:27.860Z,83.99
2023-04-08T23:12:55.116Z,83.66
2023-04-08T23:15:22.336Z,83.91
2023-04-08T23:17:49.703Z,84.22
2023-04-08T23:20:17.067Z,84.33
2023-04-08T23:22:44.349Z,84.14
2023-04-08T23:25:11.763Z,83.76
2023-04-08T23:27:39.102Z,84.06
2023-04-08T23:30:06.941Z,83.34
2023-04-08T23:32:37.312Z,83.90
2023-04-08T23:35:05.137Z,83.20
2023-04-08T23:37:32.361Z,83.16
2023-04-08T23:39:59.780Z,83.46
2023-04-08T23:42:27.342Z,83.66
2023-04-08T23:44:55.049Z,83.71
2023-04-08T23:47:22.436Z,83.52
2023-04-08T23:49:49.775Z,83.88
2023-04-08T23:52:17.022Z,83.92
2023-04-08T23:54:44.271Z,83.78
2023-04-08T23:57:11.586Z,83.80
2023-04-08T23:59:38.888Z,83.55
